createdAt,value
2019-02-20T00:01:30.203Z,11.30
2019-02-20T00:03:58.467Z,11.67
2019-02-20T00:06:26.744Z,11.03
2019-02-20T00:08:55.017Z,11.83
2019-02-20T00:11:23.295Z,10.40
2019-02-20T00:13:51.605Z,13.58
2019-02-20T00:16:19.861Z,11.60
2019-02-20T00:18:48.139Z,12.13
2019-02-20T00:21:16.413Z,13.30
2019-02-20T00:23:44.684Z,14.10
2019-02-20T00:26:12.963Z,12.68
2019-02-20T00:28:41.238Z,13.05
2019-02-20T00:31:09.507Z,13.88
2019-02-20T00:33:37.780Z,13.80
2019-02-20T00:36:06.046Z,13.00
2019-02-20T00:38:34.344Z,13.73
2019-02-20T00:41:02.618Z,15.60
2019-02-20T00:43:30.892Z,14.43
2019-02-20T00:46:09.839Z,14.55
2019-02-20T00:48:39.729Z,15.63
2019-02-20T00:51:12.023Z,15.77
2019-02-20T00:53:42.126Z,15.58
2019-02-20T00:56:10.360Z,13.65
2019-02-20T00:58:38.635Z,15.75
2019-02-20T01:01:06.914Z,14.13
2019-02-20T01:03:35.177Z,15.43
2019-02-20T01:06:04.974Z,14.70
2019-02-20T01:08:33.303Z,13.40
2019-02-20T01:11:01.599Z,16.80
2019-02-20T01:13:29.865Z,14.47
2019-02-20T01:15:58.147Z,17.03
2019-02-20T01:18:26.436Z,14.60
2019-02-20T01:20:54.689Z,14.80
2019-02-20T01:23:22.968Z,14.95
2019-02-20T01:25:51.218Z,15.00
2019-02-20T01:28:19.502Z,15.47
2019-02-20T01:30:47.759Z,14.20
2019-02-20T01:33:16.619Z,13.80
2019-02-20T01:35:44.868Z,14.30
2019-02-20T01:38:13.197Z,16.27
2019-02-20T01:40:41.467Z,14.00
2019-02-20T01:43:09.735Z,13.33
2019-02-20T01:45:38.017Z,13.18
2019-02-20T01:48:06.298Z,15.10
2019-02-20T01:50:34.555Z,12.65
2019-02-20T01:53:09.989Z,13.47
2019-02-20T01:55:32.811Z,13.80
2019-02-20T01:58:01.079Z,12.90
2019-02-20T02:00:29.366Z,13.88
2019-02-20T02:02:57.656Z,13.25
2019-02-20T02:05:25.939Z,12.28
2019-02-20T02:07:54.216Z,13.68
2019-02-20T02:10:22.476Z,13.22
2019-02-20T02:12:50.743Z,13.78
2019-02-20T02:15:20.713Z,12.58
2019-02-20T02:17:49.048Z,11.03
2019-02-20T02:20:17.319Z,11.60
2019-02-20T02:22:45.592Z,10.83
2019-02-20T02:25:13.873Z,11.60
2019-02-20T02:27:42.151Z,10.83
2019-02-20T02:30:12.736Z,9.27
2019-02-20T02:32:41.010Z,11.17
2019-02-20T02:35:09.304Z,11.73
2019-02-20T02:37:37.566Z,10.23
2019-02-20T02:40:06.794Z,10.07
2019-02-20T02:42:35.047Z,10.37
2019-02-20T02:45:03.336Z,9.80
2019-02-20T02:47:31.597Z,9.53
2019-02-20T02:49:59.862Z,9.83
2019-02-20T02:52:28.142Z,9.87
2019-02-20T02:54:56.408Z,10.03
2019-02-20T02:57:24.691Z,9.47
2019-02-20T02:59:52.953Z,12.00
2019-02-20T03:02:21.236Z,8.47
2019-02-20T03:04:49.501Z,11.05
2019-02-20T03:07:17.761Z,9.33
2019-02-20T03:09:46.399Z,9.70
2019-02-20T03:12:14.669Z,11.60
2019-02-20T03:14:42.927Z,9.75
2019-02-20T03:17:11.202Z,10.43
2019-02-20T03:19:39.482Z,11.60
2019-02-20T03:22:07.741Z,10.43
2019-02-20T03:24:36.020Z,11.00
2019-02-20T03:27:04.301Z,11.77
2019-02-20T03:29:32.591Z,11.63
2019-02-20T03:32:00.884Z,10.98
2019-02-20T03:34:29.181Z,11.73
2019-02-20T03:36:57.436Z,11.43
2019-02-20T03:39:25.712Z,11.43
2019-02-20T03:41:53.986Z,11.23
2019-02-20T03:44:22.263Z,12.37
2019-02-20T03:46:50.532Z,11.70
2019-02-20T03:49:18.794Z,11.45
2019-02-20T03:51:47.058Z,13.72
2019-02-20T03:54:15.329Z,12.77
2019-02-20T03:56:43.595Z,11.45
2019-02-20T03:59:11.864Z,11.85
2019-02-20T04:01:40.143Z,13.90
2019-02-20T04:04:08.426Z,13.40
2019-02-20T04:06:36.694Z,12.53
2019-02-20T04:09:05.933Z,13.40
2019-02-20T04:11:34.232Z,12.90
2019-02-20T04:14:02.501Z,14.13
2019-02-20T04:16:30.771Z,14.73
2019-02-20T04:18:59.038Z,12.68
2019-02-20T04:21:27.317Z,14.03
2019-02-20T04:24:02.440Z,16.60
2019-02-20T04:26:25.597Z,16.00
2019-02-20T04:28:53.851Z,15.33
2019-02-20T04:31:22.120Z,15.90
2019-02-20T04:33:50.405Z,19.20
2019-02-20T04:36:18.721Z,18.83
2019-02-20T04:38:46.954Z,19.23
2019-02-20T04:41:15.240Z,18.27
2019-02-20T04:43:43.927Z,19.52
2019-02-20T04:46:12.193Z,19.10
2019-02-20T04:48:40.485Z,20.48
2019-02-20T04:51:08.745Z,20.50
2019-02-20T04:53:37.009Z,22.43
2019-02-20T04:56:05.316Z,19.80
2019-02-20T04:58:33.572Z,20.17
2019-02-20T05:01:01.839Z,21.40
2019-02-20T05:03:30.126Z,22.90
2019-02-20T05:05:58.387Z,21.60
2019-02-20T05:08:26.679Z,22.75
2019-02-20T05:10:54.962Z,21.87
2019-02-20T05:13:23.249Z,21.70
2019-02-20T05:15:51.493Z,22.17
2019-02-20T05:18:19.763Z,22.27
2019-02-20T05:20:48.028Z,25.50
2019-02-20T05:23:16.308Z,23.10
2019-02-20T05:25:44.560Z,21.40
2019-02-20T05:28:12.844Z,21.55
2019-02-20T05:30:41.107Z,22.97
2019-02-20T05:33:09.409Z,21.00
2019-02-20T05:35:37.649Z,21.83
2019-02-20T05:38:05.909Z,20.50
2019-02-20T05:40:34.170Z,22.70
2019-02-20T05:43:02.456Z,21.90
2019-02-20T05:45:30.725Z,23.07
2019-02-20T05:47:58.985Z,22.15
2019-02-20T05:50:27.262Z,22.67
2019-02-20T05:52:55.539Z,21.48
2019-02-20T05:55:23.800Z,22.85
2019-02-20T05:57:52.086Z,22.17
2019-02-20T06:00:20.353Z,21.35
2019-02-20T06:02:48.620Z,23.77
2019-02-20T06:05:16.889Z,22.40
2019-02-20T06:07:45.145Z,20.93
2019-02-20T06:10:13.444Z,23.37
2019-02-20T06:12:41.691Z,21.73
2019-02-20T06:15:10.318Z,23.20
2019-02-20T06:17:38.587Z,22.07
2019-02-20T06:20:09.006Z,20.97
2019-02-20T06:22:37.273Z,23.97
2019-02-20T06:25:05.771Z,21.97
2019-02-20T06:27:34.047Z,24.47
2019-02-20T06:30:02.505Z,24.17
2019-02-20T06:32:30.768Z,25.20
2019-02-20T06:34:59.031Z,24.60
2019-02-20T06:37:27.303Z,24.20
2019-02-20T06:39:55.592Z,23.32
2019-02-20T06:42:23.875Z,24.27
2019-02-20T06:44:52.133Z,23.27
2019-02-20T06:47:20.412Z,23.50
2019-02-20T06:49:48.683Z,24.40
2019-02-20T06:52:16.954Z,25.93
2019-02-20T06:54:53.690Z,24.00
2019-02-20T06:57:15.217Z,24.83
2019-02-20T06:59:43.479Z,25.70
2019-02-20T07:02:11.829Z,24.72
2019-02-20T07:04:40.116Z,27.60
2019-02-20T07:07:20.345Z,24.40
2019-02-20T07:10:13.860Z,26.43
2019-02-20T07:12:48.202Z,25.35
2019-02-20T07:15:37.273Z,25.37
2019-02-20T07:18:20.299Z,24.10
2019-02-20T07:21:01.497Z,25.37
2019-02-20T07:23:44.755Z,25.90
2019-02-20T07:26:21.729Z,26.73
2019-02-20T07:29:10.989Z,25.00
2019-02-20T07:31:39.268Z,24.12
2019-02-20T07:34:07.546Z,23.77
2019-02-20T07:36:35.815Z,24.33
2019-02-20T07:39:05.531Z,25.53
2019-02-20T07:41:33.803Z,24.65
2019-02-20T07:44:02.083Z,23.22
2019-02-20T07:46:30.361Z,27.37
2019-02-20T07:48:58.641Z,28.47
2019-02-20T07:51:26.896Z,27.98
2019-02-20T07:53:55.163Z,28.20
2019-02-20T07:56:24.165Z,28.40
2019-02-20T07:58:52.484Z,27.97
2019-02-20T08:01:20.748Z,29.23
2019-02-20T08:03:49.023Z,30.17
2019-02-20T08:06:17.288Z,28.43
2019-02-20T08:08:45.577Z,27.80
2019-02-20T08:11:13.837Z,29.10
2019-02-20T08:13:42.108Z,25.33
2019-02-20T08:16:10.372Z,27.13
2019-02-20T08:18:38.627Z,29.55
2019-02-20T08:21:06.890Z,29.93
2019-02-20T08:23:35.155Z,27.77
2019-02-20T08:26:03.456Z,27.73
2019-02-20T08:28:31.717Z,32.40
2019-02-20T08:31:00.006Z,29.70
2019-02-20T08:33:28.284Z,29.33
2019-02-20T08:35:56.557Z,27.57
2019-02-20T08:38:24.823Z,29.20
2019-02-20T08:40:53.085Z,30.23
2019-02-20T08:43:21.357Z,28.73
2019-02-20T08:45:49.635Z,28.30
2019-02-20T08:48:17.908Z,30.50
2019-02-20T08:50:46.160Z,29.20
2019-02-20T08:53:14.441Z,27.23
2019-02-20T08:55:42.722Z,32.40
2019-02-20T08:58:10.984Z,28.42
2019-02-20T09:00:39.251Z,29.80
2019-02-20T09:03:07.516Z,28.47
2019-02-20T09:05:35.791Z,28.50
2019-02-20T09:08:04.077Z,28.23
2019-02-20T09:10:32.330Z,28.73
2019-02-20T09:13:00.601Z,31.50
2019-02-20T09:15:28.865Z,27.77
2019-02-20T09:17:57.144Z,28.83
2019-02-20T09:20:25.412Z,27.03
2019-02-20T09:22:53.683Z,29.70
2019-02-20T09:25:21.949Z,29.60
2019-02-20T09:27:50.212Z,28.77
2019-02-20T09:30:18.474Z,29.20
2019-02-20T09:32:46.772Z,28.93
2019-02-20T09:35:14.999Z,29.10
2019-02-20T09:37:43.277Z,27.75
2019-02-20T09:40:14.458Z,29.12
2019-02-20T09:42:43.973Z,29.20
2019-02-20T09:45:12.245Z,28.83
2019-02-20T09:47:40.513Z,29.20
2019-02-20T09:50:09.044Z,28.17
2019-02-20T09:52:37.330Z,30.67
2019-02-20T09:55:10.667Z,30.53
2019-02-20T09:57:38.925Z,29.98
2019-02-20T10:00:10.352Z,31.62
2019-02-20T10:02:38.645Z,30.63
2019-02-20T10:05:08.847Z,29.83
2019-02-20T10:07:37.109Z,30.53
2019-02-20T10:10:07.982Z,32.40
2019-02-20T10:12:36.269Z,29.97
2019-02-20T10:15:07.551Z,30.33
2019-02-20T10:17:35.825Z,30.05
2019-02-20T10:20:05.535Z,31.60
2019-02-20T10:22:33.799Z,29.30
2019-02-20T10:25:02.089Z,31.47
2019-02-20T10:27:30.370Z,29.50
2019-02-20T10:29:58.667Z,30.92
2019-02-20T10:32:26.925Z,31.00
2019-02-20T10:34:55.184Z,33.10
2019-02-20T10:37:23.433Z,31.17
2019-02-20T10:39:51.692Z,32.60
2019-02-20T10:42:19.951Z,33.87
2019-02-20T10:44:48.215Z,31.17
2019-02-20T10:47:16.478Z,33.75
2019-02-20T10:49:44.748Z,33.28
2019-02-20T10:52:13.017Z,32.73
2019-02-20T10:54:41.288Z,32.40
2019-02-20T10:57:09.544Z,32.27
2019-02-20T10:59:37.799Z,32.83
2019-02-20T11:02:06.066Z,32.67
2019-02-20T11:04:34.328Z,29.37
2019-02-20T11:07:02.586Z,31.07
2019-02-20T11:09:31.906Z,30.67
2019-02-20T11:12:00.181Z,33.60
2019-02-20T11:14:28.445Z,30.45
2019-02-20T11:16:56.709Z,31.20
2019-02-20T11:19:24.983Z,32.53
2019-02-20T11:21:53.264Z,31.05
2019-02-20T11:24:21.529Z,29.83
2019-02-20T11:26:54.291Z,31.17
2019-02-20T11:29:19.780Z,30.48
2019-02-20T11:31:48.042Z,33.60
2019-02-20T11:34:16.307Z,31.00
2019-02-20T11:36:44.570Z,33.63
2019-02-20T11:39:12.832Z,32.20
2019-02-20T11:41:41.092Z,30.87
2019-02-20T11:44:09.359Z,30.70
2019-02-20T11:46:37.634Z,32.07
2019-02-20T11:49:05.911Z,31.97
2019-02-20T11:51:34.190Z,34.07
2019-02-20T11:54:02.459Z,31.68
2019-02-20T11:56:30.732Z,31.60
2019-02-20T11:58:59.006Z,29.40
2019-02-20T12:01:27.490Z,28.87
2019-02-20T12:03:55.697Z,31.23
2019-02-20T12:06:23.960Z,29.90
2019-02-20T12:08:52.230Z,29.90
2019-02-20T12:11:20.492Z,28.07
2019-02-20T12:13:48.765Z,31.25
2019-02-20T12:16:17.029Z,28.93
2019-02-20T12:18:45.387Z,29.37
2019-02-20T12:21:13.619Z,30.77
2019-02-20T12:23:41.891Z,30.73
2019-02-20T12:26:10.164Z,29.30
2019-02-20T12:28:38.435Z,29.20
2019-02-20T12:31:06.692Z,28.25
2019-02-20T12:33:34.958Z,27.87
2019-02-20T12:36:03.228Z,27.23
2019-02-20T12:38:31.513Z,26.80
2019-02-20T12:40:59.778Z,26.23
2019-02-20T12:43:28.052Z,30.10
2019-02-20T12:45:56.331Z,26.65
2019-02-20T12:48:24.621Z,26.23
2019-02-20T12:50:52.883Z,26.23
2019-02-20T12:53:21.157Z,25.33
2019-02-20T12:55:49.417Z,26.77
2019-02-20T12:58:17.742Z,25.40
2019-02-20T13:00:46.005Z,26.47
2019-02-20T13:03:14.268Z,26.70
2019-02-20T13:05:42.572Z,25.37
2019-02-20T13:08:10.826Z,25.15
2019-02-20T13:10:39.087Z,25.80
2019-02-20T13:13:07.446Z,26.48
2019-02-20T13:15:35.716Z,25.30
2019-02-20T13:18:03.967Z,25.47
2019-02-20T13:20:32.233Z,26.17
2019-02-20T13:23:00.513Z,27.50
2019-02-20T13:25:28.756Z,25.80
2019-02-20T13:27:57.015Z,25.27
2019-02-20T13:30:25.275Z,27.40
2019-02-20T13:32:53.539Z,27.48
2019-02-20T13:35:21.807Z,27.20
2019-02-20T13:37:50.108Z,27.50
2019-02-20T13:40:18.356Z,28.57
2019-02-20T13:42:46.590Z,25.10
2019-02-20T13:45:14.852Z,27.00
2019-02-20T13:47:43.116Z,27.30
2019-02-20T13:50:13.020Z,26.93
2019-02-20T13:52:41.759Z,29.02
2019-02-20T13:55:10.023Z,29.60
2019-02-20T13:57:38.292Z,27.77
2019-02-20T14:00:09.742Z,27.13
2019-02-20T14:02:37.991Z,25.07
2019-02-20T14:05:07.993Z,26.50
2019-02-20T14:07:36.297Z,26.07
2019-02-20T14:10:10.026Z,27.17
2019-02-20T14:12:38.303Z,27.93
2019-02-20T14:15:08.791Z,27.67
2019-02-20T14:17:37.058Z,26.10
2019-02-20T14:20:08.150Z,25.43
2019-02-20T14:22:36.495Z,27.50
2019-02-20T14:25:07.072Z,27.50
2019-02-20T14:27:35.375Z,26.82
2019-02-20T14:30:04.314Z,27.47
2019-02-20T14:32:32.563Z,27.10
2019-02-20T14:35:00.841Z,24.98
2019-02-20T14:37:29.083Z,24.23
2019-02-20T14:39:58.162Z,24.37
2019-02-20T14:42:26.411Z,24.95
2019-02-20T14:44:54.689Z,22.70
2019-02-20T14:47:22.953Z,23.32
2019-02-20T14:49:51.217Z,25.32
2019-02-20T14:52:19.491Z,24.63
2019-02-20T14:54:47.748Z,23.95
2019-02-20T14:57:19.612Z,25.27
2019-02-20T14:59:46.259Z,26.23
2019-02-20T15:02:16.539Z,21.93
2019-02-20T15:04:44.546Z,23.37
2019-02-20T15:07:12.814Z,25.27
2019-02-20T15:09:41.248Z,24.57
2019-02-20T15:12:09.680Z,22.70
2019-02-20T15:14:37.943Z,22.83
2019-02-20T15:17:07.830Z,22.77
2019-02-20T15:19:36.150Z,23.23
2019-02-20T15:22:04.425Z,23.40
2019-02-20T15:24:32.687Z,26.37
2019-02-20T15:27:00.943Z,24.60
2019-02-20T15:29:29.483Z,23.80
2019-02-20T15:31:57.747Z,26.77
2019-02-20T15:34:26.034Z,25.97
2019-02-20T15:36:54.293Z,26.03
2019-02-20T15:39:22.554Z,28.50
2019-02-20T15:41:50.822Z,27.83
2019-02-20T15:44:19.091Z,28.30
2019-02-20T15:46:47.670Z,28.30
2019-02-20T15:49:15.908Z,26.17
2019-02-20T15:51:44.181Z,28.10
2019-02-20T15:54:12.448Z,27.77
2019-02-20T15:56:40.725Z,25.27
2019-02-20T15:59:09.008Z,28.13
2019-02-20T16:01:37.283Z,28.57
2019-02-20T16:04:05.733Z,28.30
2019-02-20T16:06:33.984Z,28.10
2019-02-20T16:09:02.254Z,25.10
2019-02-20T16:11:30.514Z,26.70
2019-02-20T16:13:58.783Z,26.67
2019-02-20T16:16:28.221Z,26.67
2019-02-20T16:18:56.583Z,25.70
2019-02-20T16:21:25.022Z,30.40
2019-02-20T16:23:53.288Z,28.17
2019-02-20T16:26:21.549Z,26.07
2019-02-20T16:28:49.816Z,25.75
2019-02-20T16:31:18.075Z,23.73
2019-02-20T16:33:46.448Z,24.30
2019-02-20T16:36:14.700Z,23.30
2019-02-20T16:38:43.151Z,21.00
2019-02-20T16:41:11.433Z,18.23
2019-02-20T16:43:40.364Z,19.40
2019-02-20T16:46:08.643Z,19.00
2019-02-20T16:48:36.902Z,19.83
2019-02-20T16:51:05.161Z,18.97
2019-02-20T16:53:33.414Z,19.53
2019-02-20T16:56:01.746Z,18.50
2019-02-20T16:58:30.026Z,19.17
2019-02-20T17:00:58.286Z,15.73
2019-02-20T17:03:26.583Z,17.83
2019-02-20T17:05:54.920Z,15.57
2019-02-20T17:08:23.195Z,15.67
2019-02-20T17:10:51.472Z,15.33
2019-02-20T17:13:19.718Z,15.30
2019-02-20T17:15:48.074Z,16.00
2019-02-20T17:18:16.337Z,15.33
2019-02-20T17:20:44.612Z,15.27
2019-02-20T17:23:13.523Z,13.90
2019-02-20T17:25:41.814Z,14.03
2019-02-20T17:28:10.390Z,13.90
2019-02-20T17:30:38.690Z,12.30
2019-02-20T17:33:06.974Z,12.13
2019-02-20T17:35:35.267Z,11.37
2019-02-20T17:38:03.523Z,11.03
2019-02-20T17:40:31.799Z,11.03
2019-02-20T17:43:00.074Z,11.43
2019-02-20T17:45:28.631Z,10.33
2019-02-20T17:47:56.893Z,10.87
2019-02-20T17:50:26.284Z,10.67
2019-02-20T17:52:54.556Z,10.30
2019-02-20T17:55:22.814Z,10.83
2019-02-20T17:57:51.098Z,10.35
2019-02-20T18:00:21.386Z,11.17
2019-02-20T18:02:49.603Z,9.80
2019-02-20T18:05:17.868Z,9.23
2019-02-20T18:07:49.644Z,9.93
2019-02-20T18:10:16.121Z,8.90
2019-02-20T18:12:44.385Z,10.13
2019-02-20T18:15:13.776Z,9.47
2019-02-20T18:17:42.136Z,9.38
2019-02-20T18:20:11.139Z,8.70
2019-02-20T18:22:39.427Z,8.78
2019-02-20T18:25:09.909Z,9.37
2019-02-20T18:27:38.286Z,8.98
2019-02-20T18:30:09.885Z,8.53
2019-02-20T18:32:38.138Z,8.57
2019-02-20T18:35:08.869Z,8.60
2019-02-20T18:37:37.130Z,8.30
2019-02-20T18:40:08.229Z,8.90
2019-02-20T18:42:36.473Z,9.25
2019-02-20T18:45:07.999Z,9.30
2019-02-20T18:47:36.283Z,9.60
2019-02-20T18:50:06.801Z,8.10
2019-02-20T18:52:35.058Z,9.73
2019-02-20T18:55:05.738Z,9.90
2019-02-20T18:57:33.320Z,10.13
2019-02-20T19:00:01.624Z,8.70
2019-02-20T19:02:29.856Z,10.13
2019-02-20T19:04:58.124Z,10.08
2019-02-20T19:07:26.394Z,10.87
2019-02-20T19:09:54.658Z,9.20
2019-02-20T19:12:34.636Z,9.58
2019-02-20T19:15:20.882Z,10.08
2019-02-20T19:18:10.231Z,9.00
2019-02-20T19:20:44.561Z,10.30
2019-02-20T19:23:30.460Z,10.78
2019-02-20T19:26:04.771Z,10.18
2019-02-20T19:28:44.482Z,8.53
2019-02-20T19:31:17.597Z,9.93
2019-02-20T19:33:54.599Z,10.90
2019-02-20T19:36:31.837Z,9.00
2019-02-20T19:39:33.096Z,8.43
2019-02-20T19:42:21.045Z,9.30
2019-02-20T19:45:01.326Z,9.28
2019-02-20T19:47:50.550Z,9.93
2019-02-20T19:50:36.911Z,9.23
2019-02-20T19:53:13.949Z,8.80
2019-02-20T19:55:48.306Z,9.20
2019-02-20T19:58:55.370Z,9.83
2019-02-20T20:01:52.920Z,9.57
2019-02-20T20:04:30.436Z,10.18
2019-02-20T20:07:17.795Z,9.53
2019-02-20T20:09:52.044Z,9.80
2019-02-20T20:12:29.307Z,9.58
2019-02-20T20:15:27.860Z,9.83
2019-02-20T20:18:15.765Z,9.00
2019-02-20T20:21:01.783Z,9.73
2019-02-20T20:23:51.078Z,9.38
2019-02-20T20:26:31.048Z,9.70
2019-02-20T20:29:06.191Z,9.97
2019-02-20T20:31:40.503Z,9.00
2019-02-20T20:34:17.663Z,9.50
2019-02-20T20:36:51.764Z,10.03
2019-02-20T20:39:31.989Z,8.80
2019-02-20T20:42:06.184Z,10.33
2019-02-20T20:44:58.141Z,9.23
2019-02-20T20:47:45.873Z,10.37
2019-02-20T20:50:29.281Z,11.05
2019-02-20T20:53:06.380Z,11.23
2019-02-20T20:55:40.324Z,9.00
2019-02-20T20:58:35.760Z,8.50
2019-02-20T21:01:26.297Z,9.30
2019-02-20T21:04:09.883Z,9.87
2019-02-20T21:06:41.325Z,10.40
2019-02-20T21:09:15.490Z,11.50
2019-02-20T21:12:12.486Z,9.47
2019-02-20T21:15:07.241Z,10.80
2019-02-20T21:17:58.069Z,10.07
2019-02-20T21:20:38.274Z,10.90
2019-02-20T21:23:15.446Z,10.47
2019-02-20T21:26:07.615Z,10.27
2019-02-20T21:29:01.263Z,12.77
2019-02-20T21:31:56.562Z,10.67
2019-02-20T21:34:44.222Z,10.47
2019-02-20T21:37:34.499Z,12.77
2019-02-20T21:40:30.581Z,12.70
2019-02-20T21:43:20.068Z,10.07
2019-02-20T21:46:19.709Z,12.63
2019-02-20T21:48:51.172Z,12.67
2019-02-20T21:51:22.610Z,12.07
2019-02-20T21:54:02.691Z,13.40
2019-02-20T21:56:39.617Z,11.88
2019-02-20T21:59:13.616Z,12.82
2019-02-20T22:01:50.553Z,11.87
2019-02-20T22:04:27.895Z,12.13
2019-02-20T22:07:02.132Z,12.60
2019-02-20T22:09:58.250Z,12.63
2019-02-20T22:12:30.113Z,13.18
2019-02-20T22:15:01.564Z,12.07
2019-02-20T22:17:44.792Z,12.73
2019-02-20T22:20:21.979Z,12.53
2019-02-20T22:23:08.138Z,13.65
2019-02-20T22:26:00.157Z,12.82
2019-02-20T22:28:43.253Z,13.20
2019-02-20T22:31:32.219Z,13.27
2019-02-20T22:34:23.004Z,13.53
2019-02-20T22:37:16.969Z,14.17
2019-02-20T22:39:51.073Z,13.03
2019-02-20T22:42:28.127Z,14.13
2019-02-20T22:45:05.135Z,12.93
2019-02-20T22:48:04.818Z,14.23
2019-02-20T22:50:53.951Z,14.37
2019-02-20T22:53:53.729Z,15.30
2019-02-20T22:56:33.980Z,14.33
2019-02-20T22:59:21.830Z,15.07
2019-02-20T23:01:59.061Z,13.37
2019-02-20T23:04:34.899Z,15.47
2019-02-20T23:07:22.810Z,14.03
2019-02-20T23:09:59.843Z,14.27
2019-02-20T23:12:46.042Z,14.00
2019-02-20T23:15:14.311Z,13.72
2019-02-20T23:17:42.584Z,14.87
2019-02-20T23:20:10.846Z,14.70
2019-02-20T23:22:39.109Z,14.75
2019-02-20T23:25:07.471Z,15.80
2019-02-20T23:27:35.766Z,16.90
2019-02-20T23:30:12.994Z,15.93
2019-02-20T23:32:36.131Z,16.93
2019-02-20T23:35:04.635Z,16.83
2019-02-20T23:37:32.916Z,15.80
2019-02-20T23:40:01.197Z,16.33
2019-02-20T23:42:29.479Z,16.03
2019-02-20T23:44:57.744Z,15.27
2019-02-20T23:47:26.016Z,16.33
2019-02-20T23:49:56.444Z,16.80
2019-02-20T23:52:24.303Z,15.83
2019-02-20T23:54:52.568Z,18.12
2019-02-20T23:57:20.832Z,16.23
2019-02-20T23:59:49.113Z,16.20
